Time;durP1;ratioP1;P1;durP2;ratioP2;P2;SDS_P1;SDS_P2;PMS_P1;PMS_P2;Temp;Humidity;BMP_temperature;BMP_pressure;BME280_temperature;BME280_humidity;BME280_pressure;Samples;Min_cycle;Max_cycle;Signal;HPM_P1;HPM_P2
2021/11/25 00:00:39;;;;;;;;;;;17.40;65.70;;;;;;5073574;28;19924;-59
2021/11/25 00:03:06;;;;;;;;;;;17.40;65.70;;;;;;5073542;28;20383;-54
2021/11/25 00:05:33;;;;;;;;;;;17.40;65.70;;;;;;5073522;28;19925;-58
2021/11/25 00:08:03;;;;;;;;;;;17.40;65.70;;;;;;5072686;28;19971;-59
2021/11/25 00:10:31;;;;;;;;;;;17.40;65.70;;;;;;5073650;28;19969;-59
2021/11/25 00:12:58;;;;;;;;;;;17.40;65.70;;;;;;5073425;28;19979;-54
2021/11/25 00:15:26;;;;;;;;;;;17.40;65.70;;;;;;5073417;28;20379;-58
2021/11/25 00:17:53;;;;;;;;;;;17.40;65.70;;;;;;5073257;28;20090;-59
2021/11/25 00:20:20;;;;;;;;;;;17.40;65.70;;;;;;5073362;28;19978;-59
2021/11/25 00:22:48;;;;;;;;;;;17.40;65.60;;;;;;5073475;28;19998;-59
2021/11/25 00:25:15;;;;;;;;;;;17.40;65.70;;;;;;5072401;28;20484;-59
2021/11/25 00:27:42;;;;;;;;;;;17.40;65.70;;;;;;5073589;28;19950;-56
2021/11/25 00:30:11;;;;;;;;;;;17.40;65.70;;;;;;5073598;28;19925;-53
2021/11/25 00:32:38;;;;;;;;;;;17.40;65.70;;;;;;5073534;28;19931;-57
2021/11/25 00:35:05;;;;;;;;;;;17.40;65.70;;;;;;5073538;28;19974;-59
2021/11/25 00:37:33;;;;;;;;;;;17.40;65.70;;;;;;5073104;28;19931;-57
2021/11/25 00:40:00;;;;;;;;;;;17.40;65.70;;;;;;5072707;28;19967;-57
2021/11/25 00:42:26;;;;;;;;;;;17.40;65.70;;;;;;5073138;28;19924;-58
2021/11/25 00:44:53;;;;;;;;;;;17.40;65.70;;;;;;5073450;28;19924;-58
2021/11/25 00:47:20;;;;;;;;;;;17.40;65.70;;;;;;5073295;28;19924;-60
2021/11/25 00:49:47;;;;;;;;;;;17.40;65.70;;;;;;5073394;28;19928;-56
2021/11/25 00:52:14;;;;;;;;;;;17.40;65.70;;;;;;5073050;28;19985;-56
2021/11/25 00:54:41;;;;;;;;;;;17.40;65.70;;;;;;5072064;28;19925;-58
2021/11/25 00:57:08;;;;;;;;;;;17.40;65.70;;;;;;5072952;28;19970;-59
2021/11/25 00:59:35;;;;;;;;;;;17.40;65.70;;;;;;5074673;28;20272;-57
2021/11/25 01:02:03;;;;;;;;;;;17.40;65.70;;;;;;5076547;28;19924;-56
2021/11/25 01:04:30;;;;;;;;;;;17.40;65.60;;;;;;5076506;28;20433;-55
2021/11/25 01:06:57;;;;;;;;;;;17.40;65.70;;;;;;5076449;28;20376;-55
2021/11/25 01:09:24;;;;;;;;;;;17.40;65.70;;;;;;5075775;28;19925;-59
2021/11/25 01:11:57;;;;;;;;;;;17.40;65.70;;;;;;5076378;28;19924;-59
2021/11/25 01:14:24;;;;;;;;;;;17.40;65.70;;;;;;5076359;28;19924;-60
2021/11/25 01:16:51;;;;;;;;;;;17.40;65.70;;;;;;5076427;28;19924;-58
2021/11/25 01:19:18;;;;;;;;;;;17.40;65.70;;;;;;5076232;28;19928;-56
2021/11/25 01:21:45;;;;;;;;;;;17.40;65.60;;;;;;5058469;28;19974;-59
2021/11/25 01:24:12;;;;;;;;;;;17.40;65.70;;;;;;5075418;28;19928;-54
2021/11/25 01:26:39;;;;;;;;;;;17.40;65.70;;;;;;5076101;28;19924;-58
2021/11/25 01:29:06;;;;;;;;;;;17.40;65.70;;;;;;5076032;28;20375;-56
2021/11/25 01:31:34;;;;;;;;;;;17.40;65.60;;;;;;5058299;28;20445;-59
2021/11/25 01:34:01;;;;;;;;;;;17.40;65.70;;;;;;5076257;28;19967;-58
2021/11/25 01:36:28;;;;;;;;;;;17.40;65.70;;;;;;5075919;28;19924;-54
2021/11/25 01:38:55;;;;;;;;;;;17.40;65.60;;;;;;5075025;28;19924;-54
2021/11/25 01:41:21;;;;;;;;;;;17.40;65.70;;;;;;5076214;28;19931;-59
2021/11/25 01:43:48;;;;;;;;;;;17.40;65.70;;;;;;5075764;28;19978;-60
2021/11/25 01:46:17;;;;;;;;;;;17.40;65.60;;;;;;5075748;28;19976;-54
2021/11/25 01:48:47;;;;;;;;;;;17.40;65.60;;;;;;5075571;28;19933;-54
2021/11/25 01:51:14;;;;;;;;;;;17.40;65.60;;;;;;5075654;28;19928;-55
2021/11/25 01:53:42;;;;;;;;;;;17.40;65.60;;;;;;5075770;28;19924;-59
2021/11/25 01:56:09;;;;;;;;;;;17.40;65.60;;;;;;5074821;28;20429;-55
2021/11/25 01:58:37;;;;;;;;;;;17.40;65.60;;;;;;5075471;28;19928;-60
2021/11/25 02:01:06;;;;;;;;;;;17.40;65.60;;;;;;5075471;28;19971;-58
2021/11/25 02:03:33;;;;;;;;;;;17.40;65.60;;;;;;5075430;28;19983;-59
2021/11/25 02:06:00;;;;;;;;;;;17.40;65.60;;;;;;5075670;28;20269;-58
2021/11/25 02:08:27;;;;;;;;;;;17.40;65.60;;;;;;5075307;28;19970;-59
2021/11/25 02:10:55;;;;;;;;;;;17.40;65.60;;;;;;5073655;28;19979;-56
2021/11/25 02:13:22;;;;;;;;;;;17.40;65.60;;;;;;5074968;28;20007;-55
2021/11/25 02:15:50;;;;;;;;;;;17.40;65.60;;;;;;5075149;28;19924;-53
2021/11/25 02:18:19;;;;;;;;;;;17.40;65.60;;;;;;5074916;28;20032;-58
2021/11/25 02:20:47;;;;;;;;;;;17.40;65.60;;;;;;5075324;28;19936;-58
2021/11/25 02:23:16;;;;;;;;;;;17.40;65.60;;;;;;5075412;28;19961;-59
2021/11/25 02:25:43;;;;;;;;;;;17.30;65.50;;;;;;5074090;28;20334;-59
2021/11/25 02:28:11;;;;;;;;;;;17.40;65.60;;;;;;5074895;28;19970;-56
2021/11/25 02:30:39;;;;;;;;;;;17.40;66.30;;;;;;5074860;28;20372;-54
2021/11/25 02:33:06;;;;;;;;;;;17.40;65.60;;;;;;5075133;28;19928;-54
2021/11/25 02:35:36;;;;;;;;;;;17.40;65.60;;;;;;5074777;28;19931;-56
2021/11/25 02:38:02;;;;;;;;;;;17.40;65.60;;;;;;5074642;28;19925;-58
2021/11/25 02:40:34;;;;;;;;;;;17.40;65.60;;;;;;5073901;28;19970;-60
2021/11/25 02:43:03;;;;;;;;;;;17.40;65.60;;;;;;5074952;28;19970;-60
2021/11/25 02:45:30;;;;;;;;;;;17.40;66.30;;;;;;5074868;28;19928;-58
2021/11/25 02:47:59;;;;;;;;;;;17.40;65.60;;;;;;5074682;28;19974;-56
2021/11/25 02:50:26;;;;;;;;;;;17.40;65.60;;;;;;5074458;28;19936;-59
2021/11/25 02:52:53;;;;;;;;;;;17.40;65.60;;;;;;5074253;28;20019;-58
2021/11/25 02:55:20;;;;;;;;;;;17.40;65.60;;;;;;5073600;28;19979;-59
2021/11/25 02:57:47;;;;;;;;;;;17.40;65.60;;;;;;5074153;28;19982;-56
2021/11/25 03:00:29;;;;;;;;;;;17.40;65.60;;;;;;5056604;28;19924;-56
2021/11/25 03:03:05;;;;;;;;;;;17.40;65.60;;;;;;5074586;28;19929;-51
2021/11/25 03:05:35;;;;;;;;;;;17.40;65.60;;;;;;5073567;28;20217;-57
2021/11/25 03:08:03;;;;;;;;;;;17.30;65.50;;;;;;5074457;28;19973;-58
2021/11/25 03:10:38;;;;;;;;;;;17.40;65.60;;;;;;5055892;28;19925;-54
2021/11/25 03:13:06;;;;;;;;;;;17.40;65.60;;;;;;5056401;28;19932;-58
2021/11/25 03:15:34;;;;;;;;;;;17.40;65.60;;;;;;5074366;28;19959;-53
2021/11/25 03:18:01;;;;;;;;;;;17.40;65.60;;;;;;5073825;28;20379;-58
2021/11/25 03:20:28;;;;;;;;;;;17.30;65.40;;;;;;5073958;28;20379;-58
2021/11/25 03:22:56;;;;;;;;;;;17.40;65.60;;;;;;5073780;28;19982;-57
2021/11/25 03:25:23;;;;;;;;;;;17.40;65.60;;;;;;5072927;28;20693;-48
2021/11/25 03:27:51;;;;;;;;;;;17.40;65.60;;;;;;5074191;28;19925;-57
2021/11/25 03:30:18;;;;;;;;;;;17.40;65.60;;;;;;5073838;28;19955;-58
2021/11/25 03:32:45;;;;;;;;;;;17.40;65.60;;;;;;5074121;28;20362;-59
2021/11/25 03:35:12;;;;;;;;;;;17.40;65.60;;;;;;5073795;28;19925;-59
2021/11/25 03:37:39;;;;;;;;;;;17.40;65.60;;;;;;5074037;28;19931;-52
2021/11/25 03:40:07;;;;;;;;;;;17.40;66.30;;;;;;5074053;28;19970;-52
2021/11/25 03:42:34;;;;;;;;;;;17.40;65.60;;;;;;5073297;28;19960;-55
2021/11/25 03:45:02;;;;;;;;;;;17.40;65.60;;;;;;5074069;28;19966;-58
2021/11/25 03:47:29;;;;;;;;;;;17.40;65.60;;;;;;5073588;28;20379;-59
2021/11/25 03:49:55;;;;;;;;;;;17.40;65.60;;;;;;5073688;28;19932;-55
2021/11/25 03:52:23;;;;;;;;;;;17.30;65.40;;;;;;5073555;28;19924;-55
2021/11/25 03:54:54;;;;;;;;;;;17.40;65.50;;;;;;5073635;28;19925;-59
2021/11/25 03:57:22;;;;;;;;;;;17.40;65.60;;;;;;5072620;28;20345;-53
2021/11/25 03:59:50;;;;;;;;;;;17.40;65.50;;;;;;5073853;28;20383;-56
2021/11/25 04:02:18;;;;;;;;;;;17.40;65.60;;;;;;5073541;28;19978;-59
2021/11/25 04:04:45;;;;;;;;;;;17.40;65.60;;;;;;5073849;28;19928;-59
2021/11/25 04:07:12;;;;;;;;;;;17.40;65.50;;;;;;5073815;28;19948;-59
2021/11/25 04:09:40;;;;;;;;;;;17.30;65.40;;;;;;5073791;28;20362;-58
2021/11/25 04:12:07;;;;;;;;;;;17.40;65.50;;;;;;5072399;28;19924;-60
2021/11/25 04:14:35;;;;;;;;;;;17.30;65.40;;;;;;5073715;28;19978;-58
2021/11/25 04:17:02;;;;;;;;;;;17.30;65.40;;;;;;5073293;28;19964;-58
2021/11/25 04:19:29;;;;;;;;;;;17.40;65.50;;;;;;5073318;28;19924;-55
2021/11/25 04:21:57;;;;;;;;;;;17.40;65.50;;;;;;5073654;28;19929;-55
2021/11/25 04:24:23;;;;;;;;;;;17.40;65.50;;;;;;5073477;28;20053;-59
2021/11/25 04:26:50;;;;;;;;;;;17.30;65.40;;;;;;5073119;28;19968;-58
2021/11/25 04:29:18;;;;;;;;;;;17.40;65.50;;;;;;5073299;28;20345;-59
2021/11/25 04:37:16;;;;;;;;;;;17.30;65.40;;;;;;5077400;28;20385;-55
2021/11/25 04:39:43;;;;;;;;;;;17.30;65.30;;;;;;5077227;28;20067;-55
2021/11/25 04:42:11;;;;;;;;;;;17.30;65.40;;;;;;5076686;28;19925;-58
2021/11/25 04:44:38;;;;;;;;;;;17.40;65.50;;;;;;5076866;28;19932;-58
2021/11/25 04:47:10;;;;;;;;;;;17.30;65.30;;;;;;5076713;28;20018;-56
2021/11/25 04:49:37;;;;;;;;;;;17.30;65.40;;;;;;5077121;28;19935;-55
2021/11/25 04:52:04;;;;;;;;;;;17.30;65.40;;;;;;5059400;28;20286;-57
2021/11/25 04:54:31;;;;;;;;;;;17.30;65.40;;;;;;5076528;28;19932;-59
2021/11/25 04:56:58;;;;;;;;;;;17.30;65.30;;;;;;5075576;28;19924;-58
2021/11/25 04:59:25;;;;;;;;;;;17.30;65.40;;;;;;5076843;28;19924;-56
2021/11/25 05:01:52;;;;;;;;;;;17.40;65.50;;;;;;5058899;28;19924;-56
2021/11/25 05:04:19;;;;;;;;;;;17.30;65.30;;;;;;5076816;28;19993;-57
2021/11/25 05:06:46;;;;;;;;;;;17.30;65.30;;;;;;5076482;28;19924;-59
2021/11/25 05:09:13;;;;;;;;;;;17.30;65.30;;;;;;5076461;28;19975;-58
2021/11/25 05:11:43;;;;;;;;;;;17.30;65.30;;;;;;5075301;28;19931;-55
2021/11/25 05:14:09;;;;;;;;;;;17.30;65.30;;;;;;5076676;28;19924;-57
2021/11/25 05:16:36;;;;;;;;;;;17.40;65.50;;;;;;5077026;28;19928;-55
2021/11/25 05:19:03;;;;;;;;;;;17.30;65.30;;;;;;5076210;28;19979;-58
2021/11/25 05:21:31;;;;;;;;;;;17.30;65.30;;;;;;5076213;28;19925;-58
2021/11/25 05:23:58;;;;;;;;;;;17.30;65.40;;;;;;5075987;28;20380;-59
2021/11/25 05:26:25;;;;;;;;;;;17.30;65.30;;;;;;5075228;28;19925;-59
2021/11/25 05:28:51;;;;;;;;;;;17.30;65.30;;;;;;5076034;28;19925;-58
2021/11/25 05:31:19;;;;;;;;;;;17.30;65.30;;;;;;5076370;28;19924;-55
2021/11/25 05:33:46;;;;;;;;;;;17.30;65.30;;;;;;5076026;28;19931;-59
2021/11/25 05:36:13;;;;;;;;;;;17.30;65.30;;;;;;5058304;28;19925;-55
2021/11/25 05:38:40;;;;;;;;;;;17.30;65.30;;;;;;5075828;28;19924;-59
2021/11/25 05:41:07;;;;;;;;;;;17.30;65.30;;;;;;5076746;28;19983;-59
2021/11/25 05:43:34;;;;;;;;;;;17.30;65.30;;;;;;5075005;28;20399;-59
2021/11/25 05:46:01;;;;;;;;;;;17.30;65.30;;;;;;5041721;28;20268;-58
2021/11/25 05:48:28;;;;;;;;;;;17.30;65.30;;;;;;5075635;28;19924;-52
2021/11/25 05:50:55;;;;;;;;;;;17.30;65.30;;;;;;5075678;28;20406;-54
2021/11/25 05:53:24;;;;;;;;;;;17.30;65.30;;;;;;5075774;28;19924;-58
2021/11/25 05:55:51;;;;;;;;;;;17.30;65.30;;;;;;5075581;28;19970;-58
2021/11/25 05:58:18;;;;;;;;;;;17.30;65.30;;;;;;5074185;28;19970;-59
2021/11/25 06:00:45;;;;;;;;;;;17.30;65.30;;;;;;5075505;28;20418;-56
2021/11/25 06:03:12;;;;;;;;;;;17.30;65.30;;;;;;5075784;28;19974;-57
2021/11/25 06:05:39;;;;;;;;;;;17.30;65.30;;;;;;5075384;28;20437;-58
2021/11/25 06:08:06;;;;;;;;;;;17.30;65.30;;;;;;5075336;28;19974;-59
2021/11/25 06:10:33;;;;;;;;;;;17.30;65.30;;;;;;5075625;28;19967;-59
2021/11/25 06:13:00;;;;;;;;;;;17.30;65.30;;;;;;5073994;28;19985;-56
2021/11/25 06:15:27;;;;;;;;;;;17.30;65.30;;;;;;5075508;28;19972;-55
2021/11/25 06:17:54;;;;;;;;;;;17.30;65.30;;;;;;5057656;28;19929;-59
2021/11/25 06:20:22;;;;;;;;;;;17.30;65.30;;;;;;5057426;28;19924;-59
2021/11/25 06:22:51;;;;;;;;;;;17.30;65.30;;;;;;5075125;28;19924;-59
2021/11/25 06:25:20;;;;;;;;;;;17.30;65.30;;;;;;5074967;28;19974;-60
2021/11/25 06:27:47;;;;;;;;;;;17.30;65.20;;;;;;5074347;28;19929;-53
2021/11/25 06:30:14;;;;;;;;;;;17.30;65.30;;;;;;5075210;28;19946;-54
2021/11/25 06:32:42;;;;;;;;;;;17.30;65.20;;;;;;5074833;28;19946;-58
2021/11/25 06:35:10;;;;;;;;;;;17.30;65.20;;;;;;5074779;28;19924;-60
2021/11/25 06:37:44;;;;;;;;;;;17.30;65.20;;;;;;5074721;28;19974;-59
2021/11/25 06:40:12;;;;;;;;;;;17.30;65.20;;;;;;5074955;28;19924;-57
2021/11/25 06:42:38;;;;;;;;;;;17.30;65.20;;;;;;5073527;28;19931;-52
2021/11/25 06:45:06;;;;;;;;;;;17.30;65.20;;;;;;5074572;28;19925;-57
2021/11/25 06:47:33;;;;;;;;;;;17.30;65.20;;;;;;5074391;28;19978;-59
2021/11/25 06:50:00;;;;;;;;;;;17.30;65.20;;;;;;5074522;28;19924;-58
2021/11/25 06:52:27;;;;;;;;;;;17.30;65.20;;;;;;5074253;28;20388;-59
2021/11/25 06:54:54;;;;;;;;;;;17.30;65.20;;;;;;5074419;28;19970;-54
2021/11/25 06:57:21;;;;;;;;;;;17.30;65.20;;;;;;5072849;28;19925;-59
2021/11/25 06:59:48;;;;;;;;;;;17.30;65.20;;;;;;5074065;28;19924;-56
2021/11/25 07:02:15;;;;;;;;;;;17.30;65.10;;;;;;5074230;28;19978;-59
2021/11/25 07:04:43;;;;;;;;;;;17.30;65.10;;;;;;5074180;28;19924;-55
2021/11/25 07:07:10;;;;;;;;;;;17.30;65.10;;;;;;5074505;28;19925;-59
2021/11/25 07:09:37;;;;;;;;;;;17.30;65.10;;;;;;5074118;28;19929;-55
2021/11/25 07:12:05;;;;;;;;;;;17.30;65.10;;;;;;5074946;28;19924;-58
2021/11/25 07:14:32;;;;;;;;;;;17.30;65.10;;;;;;5072963;28;19924;-58
2021/11/25 07:16:59;;;;;;;;;;;17.30;65.10;;;;;;5073905;28;19924;-53
2021/11/25 07:19:28;;;;;;;;;;;17.30;65.10;;;;;;5074100;28;20292;-56
2021/11/25 07:21:55;;;;;;;;;;;17.30;65.10;;;;;;5074218;28;19924;-59
2021/11/25 07:24:22;;;;;;;;;;;17.30;65.10;;;;;;5074100;28;20290;-58
2021/11/25 07:26:49;;;;;;;;;;;17.40;65.20;;;;;;5073899;28;20371;-59
2021/11/25 07:29:17;;;;;;;;;;;17.30;65.00;;;;;;5072799;28;20371;-56
2021/11/25 07:31:46;;;;;;;;;;;17.30;65.00;;;;;;5073892;28;19970;-55
2021/11/25 07:34:13;;;;;;;;;;;17.40;65.10;;;;;;5074709;28;20391;-57
2021/11/25 07:36:40;;;;;;;;;;;17.30;65.00;;;;;;5074115;28;19928;-57
2021/11/25 07:39:07;;;;;;;;;;;17.40;65.30;;;;;;5073540;28;19935;-52
2021/11/25 07:41:38;;;;;;;;;;;17.40;65.10;;;;;;5073921;28;19975;-55
2021/11/25 07:44:05;;;;;;;;;;;17.40;65.10;;;;;;5073093;28;19925;-59
2021/11/25 07:46:33;;;;;;;;;;;17.30;64.90;;;;;;5073494;28;19924;-51
2021/11/25 07:49:01;;;;;;;;;;;17.40;65.00;;;;;;5073811;28;19928;-57
2021/11/25 07:51:30;;;;;;;;;;;17.40;65.10;;;;;;5073625;28;19928;-56
2021/11/25 07:53:57;;;;;;;;;;;17.40;65.00;;;;;;5073777;28;19929;-56
2021/11/25 07:56:24;;;;;;;;;;;17.40;65.00;;;;;;5074098;28;19928;-59
2021/11/25 07:58:51;;;;;;;;;;;17.40;65.00;;;;;;5072486;28;19924;-59
2021/11/25 08:01:18;;;;;;;;;;;17.30;64.80;;;;;;5073508;28;19974;-60
2021/11/25 08:03:45;;;;;;;;;;;17.30;64.80;;;;;;5073495;28;19924;-56
2021/11/25 08:06:12;;;;;;;;;;;17.40;64.90;;;;;;5073768;28;19924;-59
2021/11/25 08:08:41;;;;;;;;;;;17.40;64.90;;;;;;5075801;28;19932;-56
2021/11/25 08:11:09;;;;;;;;;;;17.40;64.90;;;;;;5077816;28;19924;-56
2021/11/25 08:13:36;;;;;;;;;;;17.40;64.90;;;;;;5076226;28;19924;-58
2021/11/25 08:16:03;;;;;;;;;;;17.40;64.80;;;;;;5077500;28;19925;-54
2021/11/25 08:18:30;;;;;;;;;;;17.40;64.80;;;;;;5077225;28;19932;-58
2021/11/25 08:20:57;;;;;;;;;;;17.40;64.80;;;;;;5077339;28;19929;-57
2021/11/25 08:23:24;;;;;;;;;;;17.40;64.70;;;;;;5059723;28;20289;-58
2021/11/25 08:25:51;;;;;;;;;;;17.40;64.70;;;;;;5077246;28;19924;-56
2021/11/25 08:28:19;;;;;;;;;;;17.40;64.70;;;;;;5059002;28;19924;-59
2021/11/25 08:30:46;;;;;;;;;;;17.40;64.80;;;;;;5077076;28;20372;-56
2021/11/25 08:33:17;;;;;;;;;;;17.40;64.70;;;;;;5077483;28;20015;-57
2021/11/25 08:35:44;;;;;;;;;;;17.40;64.70;;;;;;5077061;28;19954;-59
2021/11/25 08:38:11;;;;;;;;;;;17.40;64.70;;;;;;5059374;28;19931;-53
2021/11/25 08:40:38;;;;;;;;;;;17.40;64.60;;;;;;5059595;28;19925;-56
2021/11/25 08:43:06;;;;;;;;;;;17.40;64.60;;;;;;5077251;28;20295;-59
2021/11/25 08:45:34;;;;;;;;;;;17.40;64.60;;;;;;5075746;28;19928;-59
2021/11/25 08:48:02;;;;;;;;;;;17.40;64.60;;;;;;5076968;28;19931;-58
2021/11/25 08:50:30;;;;;;;;;;;17.40;64.60;;;;;;5076798;28;19924;-56
2021/11/25 08:52:58;;;;;;;;;;;17.50;64.60;;;;;;5059253;28;19924;-56
2021/11/25 08:55:25;;;;;;;;;;;17.40;64.50;;;;;;5059301;28;19925;-58
2021/11/25 08:57:52;;;;;;;;;;;17.40;64.50;;;;;;5076609;28;20314;-58
2021/11/25 09:00:22;;;;;;;;;;;17.50;64.50;;;;;;5075335;28;19931;-55
2021/11/25 09:02:51;;;;;;;;;;;17.50;64.50;;;;;;5076918;28;19924;-58
2021/11/25 09:05:19;;;;;;;;;;;17.40;64.40;;;;;;5059471;28;20031;-57
2021/11/25 09:07:46;;;;;;;;;;;17.50;64.50;;;;;;5076717;28;19978;-56
2021/11/25 09:10:13;;;;;;;;;;;17.50;64.50;;;;;;5076716;28;20003;-56
2021/11/25 09:12:40;;;;;;;;;;;17.50;64.50;;;;;;5076329;28;19924;-58
2021/11/25 09:15:19;;;;;;;;;;;17.50;64.40;;;;;;5075449;28;19935;-56
2021/11/25 09:17:46;;;;;;;;;;;17.50;64.40;;;;;;5076153;28;19928;-56
2021/11/25 09:20:27;;;;;;;;;;;17.50;64.40;;;;;;5075469;28;20015;-58
2021/11/25 09:22:54;;;;;;;;;;;17.50;64.30;;;;;;5076023;28;19924;-54
2021/11/25 09:25:21;;;;;;;;;;;17.50;64.30;;;;;;5076442;28;20291;-58
2021/11/25 09:27:48;;;;;;;;;;;17.50;64.30;;;;;;5076192;28;19924;-53
2021/11/25 09:30:15;;;;;;;;;;;17.50;64.30;;;;;;5075225;28;19996;-59
2021/11/25 09:32:42;;;;;;;;;;;17.50;64.20;;;;;;5076039;28;19924;-59
2021/11/25 09:35:13;;;;;;;;;;;17.50;64.20;;;;;;5076026;28;19924;-55
2021/11/25 09:37:40;;;;;;;;;;;17.50;64.20;;;;;;5076242;28;19924;-57
2021/11/25 09:40:13;;;;;;;;;;;17.50;64.10;;;;;;5076157;28;20015;-59
2021/11/25 09:42:40;;;;;;;;;;;17.50;64.10;;;;;;5076065;28;19951;-59
2021/11/25 09:45:07;;;;;;;;;;;17.50;64.10;;;;;;5075242;28;19928;-58
2021/11/25 09:47:35;;;;;;;;;;;17.50;64.10;;;;;;5058265;28;19924;-59
2021/11/25 09:50:03;;;;;;;;;;;17.60;64.10;;;;;;5075675;28;19924;-55
2021/11/25 09:52:30;;;;;;;;;;;17.50;64.00;;;;;;5075476;28;19925;-58
2021/11/25 09:54:57;;;;;;;;;;;17.60;64.00;;;;;;5058224;28;19948;-57
2021/11/25 09:57:24;;;;;;;;;;;17.60;64.00;;;;;;5075378;28;19925;-51
2021/11/25 09:59:51;;;;;;;;;;;17.60;64.00;;;;;;5074917;28;19947;-54
2021/11/25 10:02:18;;;;;;;;;;;17.60;64.00;;;;;;5076314;28;19925;-60
2021/11/25 10:04:45;;;;;;;;;;;17.60;63.90;;;;;;5075427;28;19943;-57
2021/11/25 10:07:27;;;;;;;;;;;17.60;63.90;;;;;;5075689;28;19925;-59
2021/11/25 10:09:54;;;;;;;;;;;17.60;63.90;;;;;;5075347;28;19925;-58
2021/11/25 10:12:32;;;;;;;;;;;17.60;63.90;;;;;;5075260;28;20384;-59
2021/11/25 10:15:00;;;;;;;;;;;17.60;63.90;;;;;;5074157;28;19974;-52
2021/11/25 10:17:44;;;;;;;;;;;17.60;63.90;;;;;;5074988;28;19932;-59
2021/11/25 10:20:15;;;;;;;;;;;17.60;63.90;;;;;;5074938;28;19931;-57
2021/11/25 10:23:14;;;;;;;;;;;17.60;63.80;;;;;;5075234;28;20466;-59
2021/11/25 10:25:44;;;;;;;;;;;17.60;63.80;;;;;;5053038;28;20265;-59
2021/11/25 10:28:26;;;;;;;;;;;17.60;63.80;;;;;;5075802;28;19931;-57
2021/11/25 10:30:55;;;;;;;;;;;17.60;63.70;;;;;;5073820;28;19928;-59
2021/11/25 10:33:24;;;;;;;;;;;17.70;63.80;;;;;;5074609;28;19986;-56
2021/11/25 10:38:45;;;;;;;;;;;17.60;63.70;;;;;;5074781;28;19924;-58
2021/11/25 10:41:14;;;;;;;;;;;17.70;63.70;;;;;;5074683;28;19924;-59
2021/11/25 10:43:41;;;;;;;;;;;17.70;63.70;;;;;;5075754;28;19928;-55
2021/11/25 10:46:09;;;;;;;;;;;17.70;63.80;;;;;;5073721;28;19932;-59
2021/11/25 10:48:42;;;;;;;;;;;17.60;63.60;;;;;;5074421;28;19924;-56
2021/11/25 10:51:30;;;;;;;;;;;17.70;63.70;;;;;;5075000;28;19995;-58
2021/11/25 10:54:19;;;;;;;;;;;17.70;63.70;;;;;;5074334;28;19974;-56
2021/11/25 10:56:54;;;;;;;;;;;17.60;63.60;;;;;;5074807;28;20395;-58
2021/11/25 10:59:38;;;;;;;;;;;17.70;63.60;;;;;;5074305;28;19928;-58
2021/11/25 11:02:17;;;;;;;;;;;17.70;63.60;;;;;;5055568;28;20326;-54
2021/11/25 11:04:45;;;;;;;;;;;17.70;63.60;;;;;;5074498;28;19946;-59
2021/11/25 11:07:22;;;;;;;;;;;17.70;63.60;;;;;;5074517;28;19928;-59
2021/11/25 11:09:49;;;;;;;;;;;17.70;63.60;;;;;;5074180;28;20010;-58
2021/11/25 11:12:21;;;;;;;;;;;17.70;63.60;;;;;;5074468;28;19987;-52
2021/11/25 11:15:12;;;;;;;;;;;17.70;63.60;;;;;;5074438;28;19928;-57
2021/11/25 11:17:58;;;;;;;;;;;17.70;63.50;;;;;;5053836;28;20430;-58
2021/11/25 11:20:26;;;;;;;;;;;17.70;63.50;;;;;;5053972;28;19932;-59
2021/11/25 11:23:05;;;;;;;;;;;17.70;63.50;;;;;;5053828;28;19925;-59
2021/11/25 11:25:34;;;;;;;;;;;17.70;63.50;;;;;;5054003;28;19924;-60
2021/11/25 11:28:02;;;;;;;;;;;17.70;63.50;;;;;;5054205;28;20334;-54
2021/11/25 11:30:30;;;;;;;;;;;17.70;63.50;;;;;;5071341;28;20296;-56
2021/11/25 11:32:57;;;;;;;;;;;17.70;63.50;;;;;;5073865;28;19932;-57
2021/11/25 11:35:25;;;;;;;;;;;17.70;63.50;;;;;;5073853;28;19931;-56
2021/11/25 11:37:54;;;;;;;;;;;17.70;63.40;;;;;;5056409;28;20345;-59
2021/11/25 11:40:23;;;;;;;;;;;17.70;63.40;;;;;;5073815;28;20399;-59
2021/11/25 11:42:54;;;;;;;;;;;17.70;63.40;;;;;;5073473;28;19924;-60
2021/11/25 11:45:22;;;;;;;;;;;17.70;63.40;;;;;;5072966;28;19924;-59
2021/11/25 11:47:54;;;;;;;;;;;17.70;63.40;;;;;;5056196;28;19935;-59
2021/11/25 11:50:32;;;;;;;;;;;17.70;63.40;;;;;;5074011;28;19924;-60
2021/11/25 11:53:07;;;;;;;;;;;17.70;63.40;;;;;;5055727;28;19924;-60
2021/11/25 11:55:39;;;;;;;;;;;17.70;63.40;;;;;;5073663;28;19925;-59
2021/11/25 11:58:24;;;;;;;;;;;17.70;63.40;;;;;;5073415;28;19924;-55
2021/11/25 12:00:52;;;;;;;;;;;17.70;63.50;;;;;;5072810;28;20579;-58
2021/11/25 12:03:40;;;;;;;;;;;17.70;63.50;;;;;;5073916;28;19947;-59
2021/11/25 12:06:08;;;;;;;;;;;17.70;63.50;;;;;;5073844;28;20007;-58
2021/11/25 12:08:35;;;;;;;;;;;17.70;63.40;;;;;;5073787;28;20387;-59
2021/11/25 12:11:03;;;;;;;;;;;17.70;63.40;;;;;;5073466;28;19932;-58
2021/11/25 12:13:50;;;;;;;;;;;17.70;63.40;;;;;;5073451;28;19924;-55
2021/11/25 12:16:17;;;;;;;;;;;17.70;63.40;;;;;;5072069;28;19929;-59
2021/11/25 12:18:53;;;;;;;;;;;17.70;63.50;;;;;;5073740;28;19950;-55
2021/11/25 12:21:29;;;;;;;;;;;17.60;63.40;;;;;;5055554;28;19925;-59
2021/11/25 12:24:09;;;;;;;;;;;17.60;63.40;;;;;;5073483;28;19932;-58
2021/11/25 12:26:54;;;;;;;;;;;17.60;63.40;;;;;;5073333;28;19971;-57
2021/11/25 12:29:35;;;;;;;;;;;17.60;63.40;;;;;;5073264;28;19930;-57
2021/11/25 12:32:55;;;;;;;;;;;17.60;63.40;;;;;;5072414;28;20291;-57
2021/11/25 12:35:18;;;;;;;;;;;17.60;63.40;;;;;;5069951;28;19924;-58
2021/11/25 12:37:48;;;;;;;;;;;17.70;63.60;;;;;;5073198;28;19925;-59
2021/11/25 12:40:37;;;;;;;;;;;17.70;63.60;;;;;;5073257;28;19967;-53
2021/11/25 12:43:04;;;;;;;;;;;17.70;63.60;;;;;;5072923;28;19931;-57
2021/11/25 12:45:33;;;;;;;;;;;17.70;63.60;;;;;;5072698;28;19925;-56
2021/11/25 12:48:20;;;;;;;;;;;17.60;63.50;;;;;;5072295;28;19984;-58
2021/11/25 12:50:54;;;;;;;;;;;17.60;63.50;;;;;;5072929;28;20379;-57
2021/11/25 12:53:23;;;;;;;;;;;17.60;63.50;;;;;;5072690;28;19970;-56
2021/11/25 12:56:09;;;;;;;;;;;17.60;63.50;;;;;;5074992;28;19929;-58
2021/11/25 12:58:38;;;;;;;;;;;17.60;63.50;;;;;;5059908;28;19924;-51
2021/11/25 13:01:09;;;;;;;;;;;17.60;63.50;;;;;;5076032;28;20256;-52
2021/11/25 13:03:36;;;;;;;;;;;17.60;63.50;;;;;;5076526;28;20275;-57
2021/11/25 13:06:03;;;;;;;;;;;17.60;63.50;;;;;;5076576;28;20409;-58
2021/11/25 13:08:33;;;;;;;;;;;17.60;63.50;;;;;;5076465;28;19932;-58
2021/11/25 13:11:01;;;;;;;;;;;17.60;63.60;;;;;;5076800;28;20294;-57
2021/11/25 13:13:30;;;;;;;;;;;17.60;63.60;;;;;;5076445;28;19928;-52
2021/11/25 13:16:04;;;;;;;;;;;17.60;63.60;;;;;;5076412;28;20314;-53
2021/11/25 13:19:05;;;;;;;;;;;17.60;63.60;;;;;;5075218;28;19936;-53
2021/11/25 13:21:33;;;;;;;;;;;17.60;63.60;;;;;;5058579;28;19924;-54
2021/11/25 13:24:05;;;;;;;;;;;17.60;63.60;;;;;;5076364;28;19929;-54
2021/11/25 13:26:50;;;;;;;;;;;17.60;63.70;;;;;;5076398;28;19924;-57
2021/11/25 13:29:18;;;;;;;;;;;17.60;63.70;;;;;;5076162;28;20368;-56
2021/11/25 13:31:46;;;;;;;;;;;17.60;63.70;;;;;;5075194;28;19982;-55
2021/11/25 13:34:15;;;;;;;;;;;17.60;63.70;;;;;;5076043;28;19928;-55
2021/11/25 13:36:45;;;;;;;;;;;17.60;63.70;;;;;;5076209;28;19924;-53
2021/11/25 13:39:14;;;;;;;;;;;17.50;63.60;;;;;;5076296;28;19924;-56
2021/11/25 13:41:45;;;;;;;;;;;17.50;63.70;;;;;;5075828;28;20386;-56
2021/11/25 13:44:12;;;;;;;;;;;17.50;63.70;;;;;;5076218;28;20337;-56
2021/11/25 13:46:40;;;;;;;;;;;17.50;63.70;;;;;;5075197;28;19994;-58
2021/11/25 13:49:09;;;;;;;;;;;17.50;63.70;;;;;;5076789;28;20245;-54
2021/11/25 13:51:40;;;;;;;;;;;17.50;63.70;;;;;;5075716;28;19924;-55
2021/11/25 13:54:10;;;;;;;;;;;17.50;63.80;;;;;;5075573;28;19970;-55
2021/11/25 13:56:39;;;;;;;;;;;17.50;63.70;;;;;;5075455;28;19928;-58
2021/11/25 13:59:10;;;;;;;;;;;17.50;63.80;;;;;;5075918;28;19974;-53
2021/11/25 14:01:38;;;;;;;;;;;17.50;63.80;;;;;;5075510;28;19925;-58
2021/11/25 14:04:06;;;;;;;;;;;17.50;63.80;;;;;;5074663;28;19924;-55
2021/11/25 14:06:34;;;;;;;;;;;17.50;63.80;;;;;;5075323;28;19928;-57
2021/11/25 14:09:10;;;;;;;;;;;17.50;63.80;;;;;;5075688;28;20326;-52
2021/11/25 14:11:39;;;;;;;;;;;17.50;63.80;;;;;;5075330;28;19928;-55
2021/11/25 14:14:08;;;;;;;;;;;17.50;63.90;;;;;;5076141;28;20326;-56
2021/11/25 14:16:45;;;;;;;;;;;17.50;63.90;;;;;;5075113;28;19925;-58
2021/11/25 14:19:21;;;;;;;;;;;17.50;63.90;;;;;;5074336;28;19983;-58
2021/11/25 14:21:50;;;;;;;;;;;17.50;63.90;;;;;;5075406;28;19947;-56
2021/11/25 14:24:18;;;;;;;;;;;17.50;63.90;;;;;;5075204;28;20307;-56
2021/11/25 14:27:02;;;;;;;;;;;17.50;63.90;;;;;;5075345;28;19932;-58
2021/11/25 14:32:23;;;;;;;;;;;17.40;63.90;;;;;;5074363;28;20547;-57
2021/11/25 14:34:50;;;;;;;;;;;17.50;64.00;;;;;;5074852;28;19974;-55
2021/11/25 14:37:26;;;;;;;;;;;17.40;63.90;;;;;;5075118;28;20279;-55
2021/11/25 14:39:54;;;;;;;;;;;17.40;63.90;;;;;;5075091;28;19925;-58